createdAt,value
2018-07-14T00:03:23.247Z,9.17
2018-07-14T00:09:28.905Z,11.80
2018-07-14T00:15:34.605Z,13.23
2018-07-14T00:21:40.261Z,14.87
2018-07-14T00:27:46.234Z,15.83
2018-07-14T00:33:52.376Z,11.73
2018-07-14T00:39:58.409Z,15.00
2018-07-14T00:46:04.236Z,16.87
2018-07-14T00:52:10.005Z,11.97
2018-07-14T00:58:15.705Z,13.23
2018-07-14T01:04:21.356Z,16.40
2018-07-14T01:10:27.030Z,15.20
2018-07-14T01:16:32.804Z,12.50
2018-07-14T01:22:38.571Z,13.27
2018-07-14T01:28:44.315Z,14.40
2018-07-14T01:34:49.987Z,16.43
2018-07-14T01:40:55.917Z,15.77
2018-07-14T01:47:01.658Z,19.63
2018-07-14T01:53:07.341Z,19.73
2018-07-14T01:59:13.185Z,20.10
2018-07-14T02:05:19.155Z,16.80
2018-07-14T02:11:25.061Z,22.13
2018-07-14T02:17:30.776Z,26.30
2018-07-14T02:23:36.468Z,23.57
2018-07-14T02:29:42.238Z,20.63
2018-07-14T02:35:48.024Z,23.83
2018-07-14T02:41:55.349Z,24.77
2018-07-14T02:48:01.067Z,40.60
2018-07-14T02:54:06.785Z,37.17
2018-07-14T03:00:12.419Z,34.80
2018-07-14T03:06:18.069Z,34.63
2018-07-14T03:12:23.689Z,43.03
2018-07-14T03:18:29.332Z,42.63
2018-07-14T03:24:35.054Z,42.80
2018-07-14T03:30:41.208Z,43.00
2018-07-14T03:36:47.017Z,39.60
2018-07-14T03:42:54.472Z,38.20
2018-07-14T03:49:00.170Z,34.97
2018-07-14T03:55:06.501Z,39.00
2018-07-14T04:01:12.152Z,32.57
2018-07-14T04:07:17.876Z,37.60
2018-07-14T04:13:23.760Z,41.63
2018-07-14T04:19:29.397Z,35.20
2018-07-14T04:25:41.401Z,35.87
2018-07-14T04:31:47.225Z,39.13
2018-07-14T04:37:53.510Z,30.63
2018-07-14T04:43:59.370Z,31.83
2018-07-14T04:50:05.333Z,35.87
2018-07-14T04:56:10.957Z,26.77
2018-07-14T05:02:16.616Z,33.47
2018-07-14T05:08:22.353Z,27.63
2018-07-14T05:14:28.466Z,29.57
2018-07-14T05:20:34.149Z,27.23
2018-07-14T05:26:39.775Z,38.73
2018-07-14T05:32:45.684Z,30.60
2018-07-14T05:38:51.701Z,28.20
2018-07-14T05:44:57.715Z,25.20
2018-07-14T05:51:03.531Z,28.23
2018-07-14T05:57:09.406Z,27.57
2018-07-14T06:03:15.192Z,23.47
2018-07-14T06:09:21.683Z,23.13
2018-07-14T06:15:27.349Z,23.17
2018-07-14T06:21:33.106Z,21.43
2018-07-14T06:27:38.881Z,25.57
2018-07-14T06:33:44.671Z,22.10
2018-07-14T06:39:51.308Z,23.87
2018-07-14T06:45:57.187Z,20.80
2018-07-14T06:52:02.838Z,19.50
2018-07-14T06:58:08.585Z,25.00
2018-07-14T07:04:14.448Z,20.60
2018-07-14T07:10:20.346Z,24.33
2018-07-14T07:16:26.349Z,22.67
2018-07-14T07:22:32.395Z,21.43
2018-07-14T07:28:38.044Z,20.40
2018-07-14T07:34:44.043Z,19.53
2018-07-14T07:40:49.808Z,25.40
2018-07-14T07:46:55.728Z,20.53
2018-07-14T07:53:01.614Z,17.47
2018-07-14T07:59:07.423Z,20.90
2018-07-14T08:05:13.281Z,19.63
2018-07-14T08:11:19.657Z,15.60
2018-07-14T08:17:26.101Z,14.07
2018-07-14T08:23:31.997Z,17.20
2018-07-14T08:29:37.666Z,14.60
2018-07-14T08:35:43.355Z,15.17
2018-07-14T08:41:49.279Z,23.07
2018-07-14T08:47:56.020Z,17.33
2018-07-14T08:54:01.678Z,17.47
2018-07-14T09:00:07.544Z,22.23
2018-07-14T09:06:13.600Z,16.90
2018-07-14T09:12:20.223Z,12.43
2018-07-14T09:18:26.389Z,35.07
2018-07-14T09:24:32.065Z,17.00
2018-07-14T09:30:37.755Z,15.13
2018-07-14T09:36:43.470Z,11.20
2018-07-14T09:42:49.144Z,10.00
2018-07-14T09:48:56.382Z,12.83
2018-07-14T09:55:02.220Z,10.00
2018-07-14T10:01:10.174Z,12.47
2018-07-14T10:07:15.798Z,8.80
2018-07-14T10:13:21.470Z,9.30
2018-07-14T10:19:27.173Z,8.77
2018-07-14T10:25:32.950Z,8.70
2018-07-14T10:31:38.781Z,9.03
2018-07-14T10:37:44.590Z,8.60
2018-07-14T10:43:50.671Z,7.67
2018-07-14T10:49:56.436Z,13.50
2018-07-14T10:56:02.438Z,9.10
2018-07-14T11:02:08.280Z,6.57
2018-07-14T11:08:13.978Z,9.60
2018-07-14T11:14:19.731Z,10.57
2018-07-14T11:20:25.942Z,9.37
2018-07-14T11:26:31.838Z,7.77
2018-07-14T11:32:37.511Z,10.20
2018-07-14T11:38:43.209Z,8.27
2018-07-14T11:44:48.855Z,7.63
2018-07-14T11:50:54.914Z,8.23
2018-07-14T11:57:00.612Z,9.13
2018-07-14T12:03:06.342Z,11.77
2018-07-14T12:09:11.988Z,7.73
2018-07-14T12:15:17.672Z,8.13
2018-07-14T12:21:24.863Z,8.07
2018-07-14T12:27:30.618Z,11.77
2018-07-14T12:33:36.352Z,9.80
2018-07-14T12:39:42.053Z,11.33
2018-07-14T12:45:47.799Z,11.37
2018-07-14T12:51:53.686Z,9.47
2018-07-14T12:57:59.427Z,7.87
2018-07-14T13:04:05.340Z,5.97
2018-07-14T13:10:11.121Z,7.10
2018-07-14T13:16:16.907Z,6.83
2018-07-14T13:22:23.737Z,8.33
2018-07-14T13:28:29.402Z,4.90
2018-07-14T13:34:35.264Z,6.20
2018-07-14T13:40:41.068Z,13.83
2018-07-14T13:46:47.015Z,10.37
2018-07-14T13:52:54.630Z,10.50
2018-07-14T13:59:00.571Z,4.67
2018-07-14T14:05:06.535Z,4.30
2018-07-14T14:11:12.280Z,8.97
2018-07-14T14:17:18.035Z,6.90
2018-07-14T14:23:24.678Z,5.00
2018-07-14T14:29:30.700Z,4.40
2018-07-14T14:35:36.617Z,10.00
2018-07-14T14:41:42.328Z,5.10
2018-07-14T14:47:48.150Z,6.87
2018-07-14T14:53:54.434Z,6.70
2018-07-14T15:00:00.144Z,5.90
2018-07-14T15:06:06.031Z,5.27
2018-07-14T15:12:11.861Z,8.40
2018-07-14T15:18:17.667Z,6.17
2018-07-14T15:24:25.547Z,6.80
2018-07-14T15:30:31.558Z,5.70
2018-07-14T15:36:37.312Z,7.13
2018-07-14T15:42:43.544Z,6.90
2018-07-14T15:48:49.195Z,4.73
2018-07-14T15:54:55.047Z,7.40
2018-07-14T16:01:00.725Z,4.40
2018-07-14T16:07:06.575Z,6.60
2018-07-14T16:13:12.248Z,7.70
2018-07-14T16:19:17.931Z,6.93
2018-07-14T16:25:24.268Z,5.30
2018-07-14T16:31:30.112Z,4.60
2018-07-14T16:37:36.196Z,6.20
2018-07-14T16:43:42.232Z,5.70
2018-07-14T16:49:47.847Z,5.83
2018-07-14T16:55:54.551Z,6.47
2018-07-14T17:02:00.413Z,5.80
2018-07-14T17:08:06.209Z,6.70
2018-07-14T17:14:12.477Z,6.27
2018-07-14T17:20:17.983Z,8.27
2018-07-14T17:26:25.687Z,14.70
2018-07-14T17:32:31.365Z,12.77
2018-07-14T17:38:37.537Z,12.60
2018-07-14T17:44:43.414Z,5.53
2018-07-14T17:50:49.051Z,5.30
2018-07-14T17:56:55.422Z,5.80
2018-07-14T18:03:01.406Z,18.47
2018-07-14T18:09:09.639Z,6.20
2018-07-14T18:15:15.454Z,6.60
2018-07-14T18:21:22.142Z,7.00
2018-07-14T18:27:27.979Z,6.73
2018-07-14T18:33:33.872Z,11.93
2018-07-14T18:39:39.721Z,7.80
2018-07-14T18:45:45.339Z,8.17
2018-07-14T18:51:52.815Z,8.73
2018-07-14T18:57:58.568Z,10.17
2018-07-14T19:04:04.335Z,9.40
2018-07-14T19:10:10.256Z,12.47
2018-07-14T19:16:15.993Z,10.80
2018-07-14T19:22:22.164Z,14.13
2018-07-14T19:28:28.006Z,18.17
2018-07-14T19:34:33.632Z,9.63
2018-07-14T19:40:39.370Z,10.00
2018-07-14T19:46:45.355Z,12.53
2018-07-14T19:52:51.509Z,11.07
2018-07-14T19:58:57.137Z,10.40
2018-07-14T20:05:02.788Z,7.27
2018-07-14T20:11:08.813Z,7.07
2018-07-14T20:17:15.378Z,7.30
2018-07-14T20:23:22.812Z,8.20
2018-07-14T20:29:28.524Z,12.37
2018-07-14T20:35:34.218Z,9.37
2018-07-14T20:41:39.934Z,8.23
2018-07-14T20:47:45.733Z,5.93
2018-07-14T20:53:52.504Z,12.43
2018-07-14T20:59:58.181Z,12.97
2018-07-14T21:06:03.922Z,8.53
2018-07-14T21:12:09.799Z,7.60
2018-07-14T21:18:15.606Z,7.90
2018-07-14T21:24:21.782Z,4.40
2018-07-14T21:30:27.696Z,4.20
2018-07-14T21:36:33.341Z,4.60
2018-07-14T21:42:39.058Z,3.60
2018-07-14T21:48:44.780Z,3.97
2018-07-14T21:54:50.792Z,5.53
2018-07-14T22:01:05.945Z,4.93
2018-07-14T22:07:11.675Z,4.97
2018-07-14T22:13:17.294Z,4.50
2018-07-14T22:19:23.804Z,3.70
2018-07-14T22:25:29.557Z,4.17
2018-07-14T22:31:35.232Z,3.80
2018-07-14T22:37:41.049Z,7.60
2018-07-14T22:43:46.730Z,4.07
2018-07-14T22:49:53.041Z,3.67
2018-07-14T22:55:58.874Z,3.43
2018-07-14T23:02:04.578Z,9.60
2018-07-14T23:08:10.294Z,5.20
2018-07-14T23:14:16.071Z,3.80
2018-07-14T23:20:21.877Z,5.80
2018-07-14T23:26:27.622Z,4.87
2018-07-14T23:32:33.451Z,6.00
2018-07-14T23:38:39.320Z,5.57
2018-07-14T23:44:44.953Z,4.07
2018-07-14T23:50:50.777Z,6.20
2018-07-14T23:56:56.793Z,4.93
